sensor_id;sensor_type;location;lat;lon;timestamp;P1;durP1;ratioP1;P2;durP2;ratioP2
61702;SDS011;47622;47.726;3.298;2023-05-16T00:01:10;12.52;;;6.32;;
61702;SDS011;47622;47.726;3.298;2023-05-16T00:03:36;13.25;;;6.47;;
61702;SDS011;47622;47.726;3.298;2023-05-16T00:06:03;10.25;;;6.10;;
61702;SDS011;47622;47.726;3.298;2023-05-16T00:08:30;14.45;;;7.05;;
61702;SDS011;47622;47.726;3.298;2023-05-16T00:10:55;15.30;;;6.93;;
61702;SDS011;47622;47.726;3.298;2023-05-16T00:13:21;15.32;;;7.43;;
61702;SDS011;47622;47.726;3.298;2023-05-16T00:15:50;13.07;;;7.63;;
61702;SDS011;47622;47.726;3.298;2023-05-16T00:18:16;10.63;;;6.10;;
61702;SDS011;47622;47.726;3.298;2023-05-16T00:20:43;13.23;;;6.80;;
61702;SDS011;47622;47.726;3.298;2023-05-16T00:23:09;13.60;;;7.05;;
61702;SDS011;47622;47.726;3.298;2023-05-16T00:25:35;13.70;;;6.60;;
61702;SDS011;47622;47.726;3.298;2023-05-16T00:28:01;12.32;;;6.53;;
61702;SDS011;47622;47.726;3.298;2023-05-16T00:30:27;11.20;;;6.50;;
61702;SDS011;47622;47.726;3.298;2023-05-16T00:32:53;13.25;;;6.30;;
61702;SDS011;47622;47.726;3.298;2023-05-16T00:35:20;12.82;;;6.30;;
61702;SDS011;47622;47.726;3.298;2023-05-16T00:37:45;14.05;;;6.43;;
61702;SDS011;47622;47.726;3.298;2023-05-16T00:40:11;11.68;;;6.22;;
61702;SDS011;47622;47.726;3.298;2023-05-16T00:42:37;16.13;;;6.40;;
61702;SDS011;47622;47.726;3.298;2023-05-16T00:45:05;11.20;;;5.65;;
61702;SDS011;47622;47.726;3.298;2023-05-16T00:47:31;9.02;;;5.18;;
61702;SDS011;47622;47.726;3.298;2023-05-16T00:49:56;9.25;;;5.68;;
61702;SDS011;47622;47.726;3.298;2023-05-16T00:52:23;15.32;;;6.53;;
61702;SDS011;47622;47.726;3.298;2023-05-16T00:54:49;11.65;;;5.80;;
61702;SDS011;47622;47.726;3.298;2023-05-16T00:57:15;11.77;;;5.80;;
61702;SDS011;47622;47.726;3.298;2023-05-16T00:59:41;9.85;;;5.70;;
61702;SDS011;47622;47.726;3.298;2023-05-16T01:02:08;9.20;;;5.53;;
61702;SDS011;47622;47.726;3.298;2023-05-16T01:04:34;15.82;;;5.47;;
61702;SDS011;47622;47.726;3.298;2023-05-16T01:07:00;13.23;;;5.10;;
61702;SDS011;47622;47.726;3.298;2023-05-16T01:09:26;14.68;;;5.85;;
61702;SDS011;47622;47.726;3.298;2023-05-16T01:11:55;13.00;;;5.88;;
61702;SDS011;47622;47.726;3.298;2023-05-16T01:17:08;11.07;;;6.38;;
61702;SDS011;47622;47.726;3.298;2023-05-16T01:19:46;19.42;;;6.18;;
61702;SDS011;47622;47.726;3.298;2023-05-16T01:27:44;10.52;;;5.43;;
61702;SDS011;47622;47.726;3.298;2023-05-16T01:30:15;13.05;;;5.20;;
61702;SDS011;47622;47.726;3.298;2023-05-16T01:32:42;8.70;;;4.90;;
61702;SDS011;47622;47.726;3.298;2023-05-16T01:35:08;16.45;;;5.32;;
61702;SDS011;47622;47.726;3.298;2023-05-16T01:37:38;11.75;;;5.20;;
61702;SDS011;47622;47.726;3.298;2023-05-16T01:40:08;14.10;;;6.00;;
61702;SDS011;47622;47.726;3.298;2023-05-16T01:42:41;12.68;;;5.90;;
61702;SDS011;47622;47.726;3.298;2023-05-16T01:45:17;14.05;;;5.75;;
61702;SDS011;47622;47.726;3.298;2023-05-16T01:47:53;11.73;;;5.65;;
61702;SDS011;47622;47.726;3.298;2023-05-16T01:50:28;11.82;;;5.65;;
61702;SDS011;47622;47.726;3.298;2023-05-16T01:53:06;16.55;;;6.43;;
61702;SDS011;47622;47.726;3.298;2023-05-16T01:55:41;16.73;;;6.18;;
61702;SDS011;47622;47.726;3.298;2023-05-16T01:58:10;10.98;;;5.75;;
61702;SDS011;47622;47.726;3.298;2023-05-16T02:00:38;12.20;;;4.95;;
61702;SDS011;47622;47.726;3.298;2023-05-16T02:03:04;14.48;;;5.78;;
61702;SDS011;47622;47.726;3.298;2023-05-16T02:05:32;11.65;;;4.68;;
61702;SDS011;47622;47.726;3.298;2023-05-16T02:07:58;12.88;;;5.82;;
61702;SDS011;47622;47.726;3.298;2023-05-16T02:10:24;10.27;;;5.82;;
61702;SDS011;47622;47.726;3.298;2023-05-16T02:12:50;12.90;;;5.72;;
61702;SDS011;47622;47.726;3.298;2023-05-16T02:15:16;11.45;;;5.05;;
61702;SDS011;47622;47.726;3.298;2023-05-16T02:17:41;12.48;;;5.00;;
61702;SDS011;47622;47.726;3.298;2023-05-16T02:20:07;12.93;;;5.13;;
61702;SDS011;47622;47.726;3.298;2023-05-16T02:22:34;11.63;;;5.13;;
61702;SDS011;47622;47.726;3.298;2023-05-16T02:25:01;18.80;;;5.57;;
61702;SDS011;47622;47.726;3.298;2023-05-16T02:27:27;10.75;;;5.15;;
61702;SDS011;47622;47.726;3.298;2023-05-16T02:29:53;13.50;;;5.32;;
61702;SDS011;47622;47.726;3.298;2023-05-16T02:32:19;8.90;;;4.93;;
61702;SDS011;47622;47.726;3.298;2023-05-16T02:34:45;9.60;;;4.38;;
61702;SDS011;47622;47.726;3.298;2023-05-16T02:37:12;12.65;;;5.03;;
61702;SDS011;47622;47.726;3.298;2023-05-16T02:39:37;10.43;;;5.18;;
61702;SDS011;47622;47.726;3.298;2023-05-16T02:42:03;16.15;;;5.13;;
61702;SDS011;47622;47.726;3.298;2023-05-16T02:44:30;11.82;;;5.15;;
61702;SDS011;47622;47.726;3.298;2023-05-16T02:46:56;10.68;;;4.28;;
61702;SDS011;47622;47.726;3.298;2023-05-16T02:49:21;15.15;;;5.10;;
61702;SDS011;47622;47.726;3.298;2023-05-16T02:51:47;12.25;;;4.30;;
61702;SDS011;47622;47.726;3.298;2023-05-16T02:54:12;14.45;;;4.47;;
61702;SDS011;47622;47.726;3.298;2023-05-16T02:56:39;12.35;;;4.78;;
61702;SDS011;47622;47.726;3.298;2023-05-16T02:59:05;12.07;;;4.63;;
61702;SDS011;47622;47.726;3.298;2023-05-16T03:01:33;14.52;;;5.07;;
61702;SDS011;47622;47.726;3.298;2023-05-16T03:03:58;13.82;;;5.05;;
61702;SDS011;47622;47.726;3.298;2023-05-16T03:06:24;10.90;;;4.20;;
61702;SDS011;47622;47.726;3.298;2023-05-16T03:08:49;13.45;;;5.05;;
61702;SDS011;47622;47.726;3.298;2023-05-16T03:11:15;10.70;;;4.28;;
61702;SDS011;47622;47.726;3.298;2023-05-16T03:13:44;11.38;;;4.60;;
61702;SDS011;47622;47.726;3.298;2023-05-16T03:16:10;13.63;;;4.50;;
61702;SDS011;47622;47.726;3.298;2023-05-16T03:18:36;15.57;;;4.50;;
61702;SDS011;47622;47.726;3.298;2023-05-16T03:21:01;10.35;;;3.92;;
61702;SDS011;47622;47.726;3.298;2023-05-16T03:23:27;13.13;;;4.95;;
61702;SDS011;47622;47.726;3.298;2023-05-16T03:25:52;15.13;;;4.70;;
61702;SDS011;47622;47.726;3.298;2023-05-16T03:28:18;17.10;;;4.97;;
61702;SDS011;47622;47.726;3.298;2023-05-16T03:30:44;16.58;;;4.60;;
61702;SDS011;47622;47.726;3.298;2023-05-16T03:33:09;11.20;;;4.05;;
61702;SDS011;47622;47.726;3.298;2023-05-16T03:35:35;14.75;;;4.80;;
61702;SDS011;47622;47.726;3.298;2023-05-16T03:38:02;20.65;;;4.78;;
61702;SDS011;47622;47.726;3.298;2023-05-16T03:40:28;16.90;;;4.88;;
61702;SDS011;47622;47.726;3.298;2023-05-16T03:42:53;17.27;;;4.85;;
61702;SDS011;47622;47.726;3.298;2023-05-16T03:45:19;16.77;;;5.25;;
61702;SDS011;47622;47.726;3.298;2023-05-16T03:47:47;12.23;;;4.35;;
61702;SDS011;47622;47.726;3.298;2023-05-16T03:50:13;13.63;;;4.50;;
61702;SDS011;47622;47.726;3.298;2023-05-16T03:52:39;13.00;;;4.53;;
61702;SDS011;47622;47.726;3.298;2023-05-16T03:55:05;14.43;;;4.78;;
61702;SDS011;47622;47.726;3.298;2023-05-16T03:57:31;14.02;;;4.28;;
61702;SDS011;47622;47.726;3.298;2023-05-16T03:59:57;10.95;;;4.45;;
61702;SDS011;47622;47.726;3.298;2023-05-16T04:02:23;10.27;;;4.53;;
61702;SDS011;47622;47.726;3.298;2023-05-16T04:04:48;11.75;;;4.40;;
61702;SDS011;47622;47.726;3.298;2023-05-16T04:07:14;12.30;;;5.40;;
61702;SDS011;47622;47.726;3.298;2023-05-16T04:09:40;13.10;;;4.93;;
61702;SDS011;47622;47.726;3.298;2023-05-16T04:12:05;16.48;;;4.88;;
61702;SDS011;47622;47.726;3.298;2023-05-16T04:14:31;13.82;;;4.82;;
61702;SDS011;47622;47.726;3.298;2023-05-16T04:16:58;14.82;;;4.63;;
61702;SDS011;47622;47.726;3.298;2023-05-16T04:19:24;16.08;;;5.20;;
61702;SDS011;47622;47.726;3.298;2023-05-16T04:21:49;12.65;;;4.63;;
61702;SDS011;47622;47.726;3.298;2023-05-16T04:24:16;15.50;;;4.88;;
61702;SDS011;47622;47.726;3.298;2023-05-16T04:26:42;13.38;;;4.47;;
61702;SDS011;47622;47.726;3.298;2023-05-16T04:29:07;13.55;;;4.68;;
61702;SDS011;47622;47.726;3.298;2023-05-16T04:31:33;15.75;;;4.85;;
61702;SDS011;47622;47.726;3.298;2023-05-16T04:33:59;14.88;;;5.20;;
61702;SDS011;47622;47.726;3.298;2023-05-16T04:36:25;10.88;;;4.60;;
61702;SDS011;47622;47.726;3.298;2023-05-16T04:38:54;19.75;;;5.50;;
61702;SDS011;47622;47.726;3.298;2023-05-16T04:41:20;18.77;;;4.70;;
61702;SDS011;47622;47.726;3.298;2023-05-16T04:43:47;12.98;;;3.88;;
61702;SDS011;47622;47.726;3.298;2023-05-16T04:46:13;16.15;;;4.65;;
61702;SDS011;47622;47.726;3.298;2023-05-16T04:48:39;18.63;;;5.20;;
61702;SDS011;47622;47.726;3.298;2023-05-16T04:51:05;10.13;;;4.05;;
61702;SDS011;47622;47.726;3.298;2023-05-16T04:53:31;10.63;;;4.20;;
61702;SDS011;47622;47.726;3.298;2023-05-16T04:55:57;9.85;;;3.78;;
61702;SDS011;47622;47.726;3.298;2023-05-16T04:58:22;18.63;;;4.82;;
61702;SDS011;47622;47.726;3.298;2023-05-16T05:00:49;21.73;;;5.32;;
61702;SDS011;47622;47.726;3.298;2023-05-16T05:03:15;12.68;;;4.13;;
61702;SDS011;47622;47.726;3.298;2023-05-16T05:05:42;12.50;;;4.43;;
61702;SDS011;47622;47.726;3.298;2023-05-16T05:08:07;16.65;;;4.60;;
61702;SDS011;47622;47.726;3.298;2023-05-16T05:10:34;12.52;;;3.97;;
61702;SDS011;47622;47.726;3.298;2023-05-16T05:13:00;15.38;;;4.88;;
61702;SDS011;47622;47.726;3.298;2023-05-16T05:15:26;11.93;;;3.97;;
61702;SDS011;47622;47.726;3.298;2023-05-16T05:17:52;10.35;;;4.03;;
61702;SDS011;47622;47.726;3.298;2023-05-16T05:20:17;20.98;;;4.80;;
61702;SDS011;47622;47.726;3.298;2023-05-16T05:22:43;9.77;;;3.47;;
61702;SDS011;47622;47.726;3.298;2023-05-16T05:25:09;11.98;;;3.72;;
61702;SDS011;47622;47.726;3.298;2023-05-16T05:27:35;20.35;;;4.40;;
61702;SDS011;47622;47.726;3.298;2023-05-16T05:30:01;15.05;;;4.03;;
61702;SDS011;47622;47.726;3.298;2023-05-16T05:32:26;13.82;;;5.53;;
61702;SDS011;47622;47.726;3.298;2023-05-16T05:34:52;12.48;;;4.22;;
61702;SDS011;47622;47.726;3.298;2023-05-16T05:37:18;14.75;;;4.00;;
61702;SDS011;47622;47.726;3.298;2023-05-16T05:39:43;14.80;;;4.35;;
61702;SDS011;47622;47.726;3.298;2023-05-16T05:42:09;17.17;;;4.07;;
61702;SDS011;47622;47.726;3.298;2023-05-16T05:44:36;9.00;;;3.92;;
61702;SDS011;47622;47.726;3.298;2023-05-16T05:47:02;18.05;;;4.13;;
61702;SDS011;47622;47.726;3.298;2023-05-16T05:49:28;24.85;;;5.78;;
61702;SDS011;47622;47.726;3.298;2023-05-16T05:51:55;11.88;;;3.90;;
61702;SDS011;47622;47.726;3.298;2023-05-16T05:54:21;12.38;;;4.00;;
61702;SDS011;47622;47.726;3.298;2023-05-16T05:56:47;12.70;;;4.18;;
61702;SDS011;47622;47.726;3.298;2023-05-16T05:59:13;10.63;;;3.53;;
61702;SDS011;47622;47.726;3.298;2023-05-16T06:01:39;14.95;;;4.22;;
61702;SDS011;47622;47.726;3.298;2023-05-16T06:04:05;17.10;;;3.85;;
61702;SDS011;47622;47.726;3.298;2023-05-16T06:06:30;18.05;;;4.80;;
61702;SDS011;47622;47.726;3.298;2023-05-16T06:08:57;14.32;;;4.20;;
61702;SDS011;47622;47.726;3.298;2023-05-16T06:11:22;14.88;;;4.00;;
61702;SDS011;47622;47.726;3.298;2023-05-16T06:13:49;16.60;;;5.35;;
61702;SDS011;47622;47.726;3.298;2023-05-16T06:16:15;16.33;;;4.22;;
61702;SDS011;47622;47.726;3.298;2023-05-16T06:18:41;17.25;;;4.82;;
61702;SDS011;47622;47.726;3.298;2023-05-16T06:21:07;16.55;;;4.07;;
61702;SDS011;47622;47.726;3.298;2023-05-16T06:23:33;18.50;;;4.45;;
61702;SDS011;47622;47.726;3.298;2023-05-16T06:26:00;16.75;;;4.18;;
61702;SDS011;47622;47.726;3.298;2023-05-16T06:28:26;13.50;;;5.07;;
61702;SDS011;47622;47.726;3.298;2023-05-16T06:30:51;13.13;;;3.97;;
61702;SDS011;47622;47.726;3.298;2023-05-16T06:33:17;12.60;;;5.05;;
61702;SDS011;47622;47.726;3.298;2023-05-16T06:35:43;11.48;;;3.95;;
61702;SDS011;47622;47.726;3.298;2023-05-16T06:38:08;12.38;;;4.03;;
61702;SDS011;47622;47.726;3.298;2023-05-16T06:40:34;11.77;;;4.53;;
61702;SDS011;47622;47.726;3.298;2023-05-16T06:43:00;11.02;;;5.00;;
61702;SDS011;47622;47.726;3.298;2023-05-16T06:45:25;21.30;;;4.80;;
61702;SDS011;47622;47.726;3.298;2023-05-16T06:47:51;9.23;;;3.67;;
61702;SDS011;47622;47.726;3.298;2023-05-16T06:50:17;12.32;;;4.72;;
61702;SDS011;47622;47.726;3.298;2023-05-16T06:52:42;11.10;;;3.80;;
61702;SDS011;47622;47.726;3.298;2023-05-16T06:55:08;16.02;;;3.95;;
61702;SDS011;47622;47.726;3.298;2023-05-16T06:57:34;9.85;;;4.45;;
61702;SDS011;47622;47.726;3.298;2023-05-16T07:00:00;13.05;;;4.63;;
61702;SDS011;47622;47.726;3.298;2023-05-16T07:02:25;9.93;;;3.67;;
61702;SDS011;47622;47.726;3.298;2023-05-16T07:04:51;14.25;;;3.63;;
61702;SDS011;47622;47.726;3.298;2023-05-16T07:07:16;17.48;;;4.10;;
61702;SDS011;47622;47.726;3.298;2023-05-16T07:09:42;9.10;;;3.40;;
61702;SDS011;47622;47.726;3.298;2023-05-16T07:12:08;11.23;;;4.72;;
61702;SDS011;47622;47.726;3.298;2023-05-16T07:14:33;12.02;;;4.15;;
61702;SDS011;47622;47.726;3.298;2023-05-16T07:16:59;12.85;;;3.83;;
61702;SDS011;47622;47.726;3.298;2023-05-16T07:19:24;13.13;;;4.30;;
61702;SDS011;47622;47.726;3.298;2023-05-16T07:21:50;10.98;;;3.03;;
61702;SDS011;47622;47.726;3.298;2023-05-16T07:24:15;12.77;;;3.70;;
61702;SDS011;47622;47.726;3.298;2023-05-16T07:29:06;8.95;;;2.70;;
61702;SDS011;47622;47.726;3.298;2023-05-16T07:31:32;7.90;;;2.97;;
61702;SDS011;47622;47.726;3.298;2023-05-16T07:33:58;11.40;;;3.35;;
61702;SDS011;47622;47.726;3.298;2023-05-16T07:36:25;10.73;;;3.60;;
61702;SDS011;47622;47.726;3.298;2023-05-16T07:38:53;11.82;;;3.63;;
61702;SDS011;47622;47.726;3.298;2023-05-16T07:41:18;11.18;;;2.88;;
61702;SDS011;47622;47.726;3.298;2023-05-16T07:43:44;10.50;;;3.15;;
61702;SDS011;47622;47.726;3.298;2023-05-16T07:46:09;7.93;;;2.42;;
61702;SDS011;47622;47.726;3.298;2023-05-16T07:48:35;6.93;;;2.28;;
61702;SDS011;47622;47.726;3.298;2023-05-16T07:51:01;6.45;;;2.20;;
61702;SDS011;47622;47.726;3.298;2023-05-16T07:53:26;11.35;;;2.55;;
61702;SDS011;47622;47.726;3.298;2023-05-16T07:55:53;6.70;;;2.42;;
61702;SDS011;47622;47.726;3.298;2023-05-16T07:58:19;7.03;;;2.45;;
61702;SDS011;47622;47.726;3.298;2023-05-16T08:00:44;6.18;;;2.20;;
61702;SDS011;47622;47.726;3.298;2023-05-16T08:03:10;8.93;;;2.58;;
61702;SDS011;47622;47.726;3.298;2023-05-16T08:05:36;6.68;;;2.63;;
61702;SDS011;47622;47.726;3.298;2023-05-16T08:08:03;8.43;;;2.70;;
61702;SDS011;47622;47.726;3.298;2023-05-16T08:10:29;9.75;;;2.65;;
61702;SDS011;47622;47.726;3.298;2023-05-16T08:12:55;10.75;;;2.47;;
61702;SDS011;47622;47.726;3.298;2023-05-16T08:15:20;6.53;;;2.70;;
61702;SDS011;47622;47.726;3.298;2023-05-16T08:17:46;7.45;;;2.10;;
61702;SDS011;47622;47.726;3.298;2023-05-16T08:20:13;9.40;;;2.45;;
61702;SDS011;47622;47.726;3.298;2023-05-16T08:22:39;5.97;;;2.53;;
61702;SDS011;47622;47.726;3.298;2023-05-16T08:25:05;8.10;;;2.95;;
61702;SDS011;47622;47.726;3.298;2023-05-16T08:27:31;9.00;;;2.38;;
61702;SDS011;47622;47.726;3.298;2023-05-16T08:29:57;6.55;;;2.10;;
61702;SDS011;47622;47.726;3.298;2023-05-16T08:32:23;6.15;;;2.40;;
61702;SDS011;47622;47.726;3.298;2023-05-16T08:34:48;10.55;;;2.30;;
61702;SDS011;47622;47.726;3.298;2023-05-16T08:37:14;9.77;;;2.55;;
61702;SDS011;47622;47.726;3.298;2023-05-16T08:39:40;8.48;;;2.30;;
61702;SDS011;47622;47.726;3.298;2023-05-16T08:42:06;9.65;;;2.33;;
61702;SDS011;47622;47.726;3.298;2023-05-16T08:44:33;10.18;;;2.60;;
61702;SDS011;47622;47.726;3.298;2023-05-16T08:47:02;7.75;;;2.60;;
61702;SDS011;47622;47.726;3.298;2023-05-16T08:52:08;8.68;;;2.65;;
61702;SDS011;47622;47.726;3.298;2023-05-16T08:54:35;8.02;;;2.25;;
61702;SDS011;47622;47.726;3.298;2023-05-16T08:57:02;8.05;;;2.45;;
61702;SDS011;47622;47.726;3.298;2023-05-16T08:59:28;11.32;;;2.50;;
61702;SDS011;47622;47.726;3.298;2023-05-16T09:04:21;6.15;;;2.03;;
61702;SDS011;47622;47.726;3.298;2023-05-16T09:06:49;6.65;;;1.67;;
61702;SDS011;47622;47.726;3.298;2023-05-16T09:09:16;10.45;;;2.80;;
61702;SDS011;47622;47.726;3.298;2023-05-16T09:11:41;7.35;;;2.00;;
61702;SDS011;47622;47.726;3.298;2023-05-16T09:14:08;7.32;;;2.00;;
61702;SDS011;47622;47.726;3.298;2023-05-16T09:16:34;6.63;;;2.42;;
61702;SDS011;47622;47.726;3.298;2023-05-16T09:19:00;4.18;;;1.75;;
61702;SDS011;47622;47.726;3.298;2023-05-16T09:21:27;6.45;;;2.00;;
61702;SDS011;47622;47.726;3.298;2023-05-16T09:24:06;9.35;;;2.60;;
61702;SDS011;47622;47.726;3.298;2023-05-16T09:26:33;9.60;;;2.05;;
61702;SDS011;47622;47.726;3.298;2023-05-16T09:29:01;9.88;;;2.60;;
61702;SDS011;47622;47.726;3.298;2023-05-16T09:31:35;5.13;;;1.90;;
61702;SDS011;47622;47.726;3.298;2023-05-16T09:34:08;9.38;;;1.65;;
61702;SDS011;47622;47.726;3.298;2023-05-16T09:36:37;9.00;;;2.00;;
61702;SDS011;47622;47.726;3.298;2023-05-16T09:39:04;5.93;;;1.85;;
61702;SDS011;47622;47.726;3.298;2023-05-16T09:44:03;6.80;;;1.95;;
61702;SDS011;47622;47.726;3.298;2023-05-16T09:46:32;5.28;;;1.60;;
61702;SDS011;47622;47.726;3.298;2023-05-16T09:48:58;8.07;;;1.90;;
61702;SDS011;47622;47.726;3.298;2023-05-16T09:51:24;9.20;;;2.47;;
61702;SDS011;47622;47.726;3.298;2023-05-16T09:53:51;8.98;;;2.60;;
61702;SDS011;47622;47.726;3.298;2023-05-16T09:56:16;8.75;;;1.85;;
61702;SDS011;47622;47.726;3.298;2023-05-16T09:58:42;5.88;;;1.83;;
61702;SDS011;47622;47.726;3.298;2023-05-16T10:01:09;8.60;;;2.17;;
61702;SDS011;47622;47.726;3.298;2023-05-16T10:03:39;7.80;;;2.05;;
61702;SDS011;47622;47.726;3.298;2023-05-16T10:06:06;5.40;;;1.58;;
61702;SDS011;47622;47.726;3.298;2023-05-16T10:08:33;6.63;;;1.40;;
61702;SDS011;47622;47.726;3.298;2023-05-16T10:11:01;7.75;;;1.98;;
61702;SDS011;47622;47.726;3.298;2023-05-16T10:13:29;5.35;;;1.70;;
61702;SDS011;47622;47.726;3.298;2023-05-16T10:15:56;9.57;;;1.90;;
61702;SDS011;47622;47.726;3.298;2023-05-16T10:18:29;8.82;;;2.00;;
61702;SDS011;47622;47.726;3.298;2023-05-16T10:20:57;7.10;;;1.45;;
61702;SDS011;47622;47.726;3.298;2023-05-16T10:23:28;8.23;;;1.70;;
61702;SDS011;47622;47.726;3.298;2023-05-16T10:25:55;6.35;;;1.65;;
61702;SDS011;47622;47.726;3.298;2023-05-16T10:28:22;5.85;;;1.80;;
61702;SDS011;47622;47.726;3.298;2023-05-16T10:30:49;10.38;;;2.20;;
61702;SDS011;47622;47.726;3.298;2023-05-16T10:33:16;6.18;;;1.70;;
61702;SDS011;47622;47.726;3.298;2023-05-16T10:35:43;13.07;;;2.17;;
61702;SDS011;47622;47.726;3.298;2023-05-16T10:38:11;8.00;;;2.17;;
61702;SDS011;47622;47.726;3.298;2023-05-16T10:40:39;7.60;;;2.35;;
61702;SDS011;47622;47.726;3.298;2023-05-16T10:43:06;5.95;;;2.08;;
61702;SDS011;47622;47.726;3.298;2023-05-16T10:45:33;8.80;;;1.60;;
61702;SDS011;47622;47.726;3.298;2023-05-16T10:48:03;8.07;;;2.00;;
61702;SDS011;47622;47.726;3.298;2023-05-16T10:53:11;4.03;;;1.20;;
61702;SDS011;47622;47.726;3.298;2023-05-16T11:06:25;9.27;;;1.70;;
61702;SDS011;47622;47.726;3.298;2023-05-16T11:09:03;7.25;;;1.75;;
61702;SDS011;47622;47.726;3.298;2023-05-16T11:11:41;9.07;;;1.80;;
61702;SDS011;47622;47.726;3.298;2023-05-16T11:24:48;5.75;;;1.60;;
61702;SDS011;47622;47.726;3.298;2023-05-16T11:27:28;6.22;;;1.60;;
61702;SDS011;47622;47.726;3.298;2023-05-16T11:29:58;6.75;;;1.52;;
61702;SDS011;47622;47.726;3.298;2023-05-16T11:32:38;5.07;;;1.65;;
61702;SDS011;47622;47.726;3.298;2023-05-16T11:35:06;6.57;;;1.90;;
61702;SDS011;47622;47.726;3.298;2023-05-16T11:37:34;6.97;;;1.48;;
61702;SDS011;47622;47.726;3.298;2023-05-16T11:40:03;6.63;;;1.77;;
61702;SDS011;47622;47.726;3.298;2023-05-16T11:42:34;4.88;;;1.60;;
61702;SDS011;47622;47.726;3.298;2023-05-16T11:45:11;4.32;;;1.30;;
61702;SDS011;47622;47.726;3.298;2023-05-16T11:47:40;5.18;;;1.77;;
61702;SDS011;47622;47.726;3.298;2023-05-16T11:50:10;5.60;;;1.70;;
61702;SDS011;47622;47.726;3.298;2023-05-16T11:52:36;3.85;;;1.40;;
61702;SDS011;47622;47.726;3.298;2023-05-16T11:55:05;7.50;;;1.70;;
61702;SDS011;47622;47.726;3.298;2023-05-16T11:57:32;5.57;;;1.55;;
61702;SDS011;47622;47.726;3.298;2023-05-16T12:00:17;4.30;;;1.40;;
61702;SDS011;47622;47.726;3.298;2023-05-16T12:02:49;8.57;;;1.83;;
61702;SDS011;47622;47.726;3.298;2023-05-16T12:05:15;6.18;;;1.98;;
61702;SDS011;47622;47.726;3.298;2023-05-16T12:07:42;7.50;;;1.77;;
61702;SDS011;47622;47.726;3.298;2023-05-16T12:10:09;6.10;;;1.67;;
61702;SDS011;47622;47.726;3.298;2023-05-16T12:12:37;6.00;;;1.50;;
61702;SDS011;47622;47.726;3.298;2023-05-16T12:15:04;5.43;;;1.50;;
61702;SDS011;47622;47.726;3.298;2023-05-16T12:17:35;6.45;;;1.75;;
61702;SDS011;47622;47.726;3.298;2023-05-16T12:20:02;6.75;;;1.73;;
61702;SDS011;47622;47.726;3.298;2023-05-16T12:22:30;9.40;;;2.00;;
61702;SDS011;47622;47.726;3.298;2023-05-16T12:24:58;8.13;;;1.73;;
61702;SDS011;47622;47.726;3.298;2023-05-16T12:27:24;5.65;;;1.65;;
61702;SDS011;47622;47.726;3.298;2023-05-16T12:29:50;7.43;;;1.98;;
61702;SDS011;47622;47.726;3.298;2023-05-16T12:32:19;6.40;;;1.50;;
61702;SDS011;47622;47.726;3.298;2023-05-16T12:34:49;8.43;;;1.80;;
61702;SDS011;47622;47.726;3.298;2023-05-16T12:37:19;7.40;;;1.70;;
61702;SDS011;47622;47.726;3.298;2023-05-16T12:39:45;7.55;;;1.77;;
61702;SDS011;47622;47.726;3.298;2023-05-16T12:42:12;7.68;;;1.65;;
61702;SDS011;47622;47.726;3.298;2023-05-16T12:44:39;8.27;;;1.90;;
61702;SDS011;47622;47.726;3.298;2023-05-16T12:47:10;3.90;;;1.55;;
61702;SDS011;47622;47.726;3.298;2023-05-16T12:49:36;6.25;;;2.58;;
61702;SDS011;47622;47.726;3.298;2023-05-16T12:52:18;7.38;;;1.88;;
61702;SDS011;47622;47.726;3.298;2023-05-16T12:54:45;6.15;;;1.73;;
61702;SDS011;47622;47.726;3.298;2023-05-16T12:57:11;8.52;;;1.70;;
61702;SDS011;47622;47.726;3.298;2023-05-16T12:59:36;8.77;;;2.00;;
61702;SDS011;47622;47.726;3.298;2023-05-16T13:02:02;4.22;;;1.45;;
61702;SDS011;47622;47.726;3.298;2023-05-16T13:04:28;4.35;;;1.40;;
61702;SDS011;47622;47.726;3.298;2023-05-16T13:06:56;4.70;;;1.70;;
61702;SDS011;47622;47.726;3.298;2023-05-16T13:09:22;8.60;;;1.75;;
61702;SDS011;47622;47.726;3.298;2023-05-16T13:11:48;6.97;;;1.70;;
61702;SDS011;47622;47.726;3.298;2023-05-16T13:14:15;8.10;;;1.73;;
61702;SDS011;47622;47.726;3.298;2023-05-16T13:16:42;8.07;;;2.00;;
61702;SDS011;47622;47.726;3.298;2023-05-16T13:19:07;4.32;;;1.40;;
61702;SDS011;47622;47.726;3.298;2023-05-16T13:21:33;7.95;;;1.95;;
61702;SDS011;47622;47.726;3.298;2023-05-16T13:24:00;5.68;;;1.33;;
61702;SDS011;47622;47.726;3.298;2023-05-16T13:26:26;6.88;;;1.75;;
61702;SDS011;47622;47.726;3.298;2023-05-16T13:28:52;4.70;;;1.80;;
61702;SDS011;47622;47.726;3.298;2023-05-16T13:31:20;6.38;;;2.22;;
61702;SDS011;47622;47.726;3.298;2023-05-16T13:33:49;4.35;;;1.70;;
61702;SDS011;47622;47.726;3.298;2023-05-16T13:36:15;4.18;;;1.58;;
61702;SDS011;47622;47.726;3.298;2023-05-16T13:38:40;6.22;;;1.83;;
61702;SDS011;47622;47.726;3.298;2023-05-16T13:41:06;6.25;;;1.80;;
61702;SDS011;47622;47.726;3.298;2023-05-16T13:43:32;6.60;;;1.85;;
61702;SDS011;47622;47.726;3.298;2023-05-16T13:45:57;8.68;;;1.90;;
61702;SDS011;47622;47.726;3.298;2023-05-16T13:48:23;7.88;;;1.80;;
61702;SDS011;47622;47.726;3.298;2023-05-16T13:50:49;6.28;;;1.80;;
61702;SDS011;47622;47.726;3.298;2023-05-16T13:53:16;8.77;;;1.63;;
61702;SDS011;47622;47.726;3.298;2023-05-16T13:55:41;4.05;;;1.65;;
61702;SDS011;47622;47.726;3.298;2023-05-16T13:58:07;6.22;;;2.17;;
61702;SDS011;47622;47.726;3.298;2023-05-16T14:00:32;5.00;;;1.70;;
61702;SDS011;47622;47.726;3.298;2023-05-16T14:02:59;8.02;;;1.85;;
61702;SDS011;47622;47.726;3.298;2023-05-16T14:05:25;11.70;;;1.75;;
61702;SDS011;47622;47.726;3.298;2023-05-16T14:07:50;5.80;;;1.88;;
61702;SDS011;47622;47.726;3.298;2023-05-16T14:10:17;8.40;;;1.75;;
61702;SDS011;47622;47.726;3.298;2023-05-16T14:12:42;3.53;;;1.70;;
61702;SDS011;47622;47.726;3.298;2023-05-16T14:15:08;3.53;;;1.50;;
61702;SDS011;47622;47.726;3.298;2023-05-16T14:17:34;5.75;;;1.77;;
61702;SDS011;47622;47.726;3.298;2023-05-16T14:19:59;4.05;;;2.17;;
61702;SDS011;47622;47.726;3.298;2023-05-16T14:22:25;5.72;;;1.65;;
61702;SDS011;47622;47.726;3.298;2023-05-16T14:24:52;6.05;;;1.73;;
61702;SDS011;47622;47.726;3.298;2023-05-16T14:27:18;5.25;;;1.60;;
61702;SDS011;47622;47.726;3.298;2023-05-16T14:29:43;9.10;;;2.65;;
61702;SDS011;47622;47.726;3.298;2023-05-16T14:32:09;8.48;;;1.65;;
61702;SDS011;47622;47.726;3.298;2023-05-16T14:34:36;4.03;;;1.55;;
61702;SDS011;47622;47.726;3.298;2023-05-16T14:37:01;4.95;;;1.50;;
61702;SDS011;47622;47.726;3.298;2023-05-16T14:39:27;7.70;;;1.65;;
61702;SDS011;47622;47.726;3.298;2023-05-16T14:41:52;7.13;;;1.65;;
61702;SDS011;47622;47.726;3.298;2023-05-16T14:44:18;2.63;;;1.52;;
61702;SDS011;47622;47.726;3.298;2023-05-16T14:46:45;5.90;;;1.40;;
61702;SDS011;47622;47.726;3.298;2023-05-16T14:49:11;5.40;;;1.50;;
61702;SDS011;47622;47.726;3.298;2023-05-16T14:51:37;3.80;;;1.77;;
61702;SDS011;47622;47.726;3.298;2023-05-16T14:54:02;7.35;;;2.03;;
61702;SDS011;47622;47.726;3.298;2023-05-16T14:56:29;4.45;;;1.45;;
61702;SDS011;47622;47.726;3.298;2023-05-16T14:58:56;9.65;;;1.67;;
61702;SDS011;47622;47.726;3.298;2023-05-16T15:01:21;3.10;;;1.17;;
61702;SDS011;47622;47.726;3.298;2023-05-16T15:03:47;5.32;;;1.48;;
61702;SDS011;47622;47.726;3.298;2023-05-16T15:06:12;3.20;;;1.40;;
61702;SDS011;47622;47.726;3.298;2023-05-16T15:08:38;6.20;;;1.30;;
61702;SDS011;47622;47.726;3.298;2023-05-16T15:11:03;6.00;;;1.58;;
61702;SDS011;47622;47.726;3.298;2023-05-16T15:13:29;4.57;;;1.60;;
61702;SDS011;47622;47.726;3.298;2023-05-16T15:15:55;4.22;;;1.45;;
61702;SDS011;47622;47.726;3.298;2023-05-16T15:18:21;5.60;;;1.75;;
61702;SDS011;47622;47.726;3.298;2023-05-16T15:20:47;7.57;;;1.55;;